createdAt,value
2023-03-30T00:02:35.464Z,12.13
2023-03-30T00:14:35.313Z,12.11
2023-03-30T00:26:35.312Z,12.10
2023-03-30T00:38:35.369Z,12.09
2023-03-30T00:50:35.329Z,12.07
2023-03-30T01:02:35.373Z,12.07
2023-03-30T01:14:35.314Z,12.05
2023-03-30T01:26:35.326Z,12.05
2023-03-30T01:38:35.319Z,12.03
2023-03-30T01:50:35.329Z,12.02
2023-03-30T02:02:35.400Z,12.01
2023-03-30T02:14:35.359Z,12.00
2023-03-30T02:26:35.414Z,11.99
2023-03-30T02:38:35.418Z,11.97
2023-03-30T02:50:35.340Z,11.97
2023-03-30T03:02:35.459Z,11.95
2023-03-30T03:14:35.328Z,11.95
2023-03-30T03:26:35.433Z,11.94
2023-03-30T03:38:35.415Z,11.91
2023-03-30T03:50:35.419Z,11.91
2023-03-30T04:02:35.551Z,11.91
2023-03-30T04:14:35.426Z,11.89
2023-03-30T04:26:35.366Z,11.88
2023-03-30T04:38:35.319Z,11.87
2023-03-30T04:50:35.586Z,11.86
2023-03-30T05:02:35.504Z,11.85
2023-03-30T05:14:35.373Z,11.84
2023-03-30T05:26:35.424Z,11.83
2023-03-30T05:38:35.426Z,11.82
2023-03-30T05:50:35.426Z,11.80
2023-03-30T06:02:35.537Z,11.80
2023-03-30T06:14:35.310Z,11.79
2023-03-30T06:26:35.313Z,11.78
2023-03-30T06:38:35.317Z,11.77
2023-03-30T06:50:35.329Z,11.76
2023-03-30T07:02:35.326Z,11.76
2023-03-30T07:14:35.391Z,11.75
2023-03-30T07:26:35.326Z,11.76
2023-03-30T07:38:35.397Z,11.84
2023-03-30T07:50:35.390Z,11.89
2023-03-30T08:02:35.448Z,11.90
2023-03-30T08:14:35.320Z,11.91
2023-03-30T08:26:36.602Z,11.92
2023-03-30T08:38:35.428Z,11.94
2023-03-30T08:50:35.416Z,12.01
2023-03-30T09:02:37.934Z,12.05
2023-03-30T09:14:35.429Z,12.09
2023-03-30T09:26:35.328Z,12.14
2023-03-30T09:38:35.305Z,12.22
2023-03-30T09:50:35.381Z,12.34
2023-03-30T10:02:35.521Z,12.36
2023-03-30T10:14:35.434Z,12.39
2023-03-30T10:26:35.313Z,12.58
2023-03-30T10:38:35.315Z,12.53
2023-03-30T10:50:35.329Z,12.50
2023-03-30T11:02:35.366Z,12.51
2023-03-30T11:14:35.426Z,12.55
2023-03-30T11:26:35.339Z,12.55
2023-03-30T11:38:35.408Z,12.55
2023-03-30T11:50:36.227Z,12.55
2023-03-30T12:02:35.523Z,12.60
2023-03-30T12:14:35.390Z,12.58
2023-03-30T12:26:35.319Z,12.58
2023-03-30T12:38:35.448Z,12.61
2023-03-30T12:50:35.415Z,12.61
2023-03-30T13:02:35.465Z,12.60
2023-03-30T13:14:35.396Z,12.60
2023-03-30T13:26:35.692Z,12.60
2023-03-30T13:38:35.413Z,12.60
2023-03-30T13:50:35.443Z,12.60
2023-03-30T14:02:37.814Z,12.59
2023-03-30T14:14:35.423Z,12.58
2023-03-30T14:26:35.304Z,12.60
2023-03-30T14:38:35.391Z,12.60
2023-03-30T14:50:35.416Z,12.60
2023-03-30T15:02:35.480Z,12.59
2023-03-30T15:14:35.339Z,12.61
2023-03-30T15:26:35.306Z,12.59
2023-03-30T15:38:35.415Z,12.58
2023-03-30T15:50:35.329Z,12.60
2023-03-30T16:02:35.398Z,12.60
2023-03-30T16:14:35.404Z,12.60
2023-03-30T16:26:35.340Z,12.60
2023-03-30T16:38:35.423Z,12.59
2023-03-30T16:50:35.326Z,12.58
2023-03-30T17:02:35.411Z,12.57
2023-03-30T17:14:35.329Z,12.55
2023-03-30T17:26:35.428Z,12.54
2023-03-30T17:38:35.374Z,12.52
2023-03-30T17:50:35.412Z,12.51
2023-03-30T18:02:35.468Z,12.50
2023-03-30T18:14:35.405Z,12.48
2023-03-30T18:26:35.350Z,12.46
2023-03-30T18:38:35.416Z,12.45
2023-03-30T18:50:35.314Z,12.44
2023-03-30T19:02:35.806Z,12.43
2023-03-30T19:14:35.342Z,12.41
2023-03-30T19:26:35.425Z,12.40
2023-03-30T19:38:35.426Z,12.39
2023-03-30T19:50:35.432Z,12.37
2023-03-30T20:02:35.462Z,12.36
2023-03-30T20:14:35.395Z,12.35
2023-03-30T20:26:35.332Z,12.34
2023-03-30T20:38:35.422Z,12.32
2023-03-30T20:50:35.405Z,12.31
2023-03-30T21:02:35.339Z,12.30
2023-03-30T21:14:35.430Z,12.29
2023-03-30T21:26:35.437Z,12.28
2023-03-30T21:38:35.368Z,12.26
2023-03-30T21:50:35.725Z,12.25
2023-03-30T22:02:35.548Z,12.24
2023-03-30T22:14:35.421Z,12.23
2023-03-30T22:26:35.365Z,12.22
2023-03-30T22:38:35.341Z,12.21
2023-03-30T22:50:35.430Z,12.18
2023-03-30T23:02:35.444Z,12.18
2023-03-30T23:14:35.411Z,12.17
2023-03-30T23:26:35.307Z,12.16
2023-03-30T23:38:35.433Z,12.15
2023-03-30T23:50:35.315Z,12.13
